sensor_id;sensor_type;location;lat;lon;timestamp;pressure;altitude;pressure_sealevel;temperature;humidity
34506;BME280;20748;42.632;23.198;2023-05-09T00:01:50;92279.66;;;10.85;100.00
34506;BME280;20748;42.632;23.198;2023-05-09T00:04:22;92271.63;;;10.82;100.00
34506;BME280;20748;42.632;23.198;2023-05-09T00:06:55;92274.22;;;10.96;100.00
34506;BME280;20748;42.632;23.198;2023-05-09T00:09:28;92268.03;;;10.92;100.00
34506;BME280;20748;42.632;23.198;2023-05-09T00:12:00;92273.06;;;10.88;100.00
34506;BME280;20748;42.632;23.198;2023-05-09T00:14:33;92272.41;;;10.82;100.00
34506;BME280;20748;42.632;23.198;2023-05-09T00:17:05;92267.78;;;10.65;100.00
34506;BME280;20748;42.632;23.198;2023-05-09T00:19:38;92270.47;;;10.74;100.00
34506;BME280;20748;42.632;23.198;2023-05-09T00:22:11;92270.59;;;10.55;100.00
34506;BME280;20748;42.632;23.198;2023-05-09T00:24:44;92266.63;;;10.57;100.00
34506;BME280;20748;42.632;23.198;2023-05-09T00:27:16;92262.19;;;10.44;100.00
34506;BME280;20748;42.632;23.198;2023-05-09T00:29:49;92257.94;;;10.48;100.00
34506;BME280;20748;42.632;23.198;2023-05-09T00:32:21;92260.38;;;10.58;100.00
34506;BME280;20748;42.632;23.198;2023-05-09T00:34:54;92253.19;;;10.50;100.00
34506;BME280;20748;42.632;23.198;2023-05-09T00:37:27;92254.53;;;10.47;100.00
34506;BME280;20748;42.632;23.198;2023-05-09T00:40:02;92251.56;;;10.54;100.00
34506;BME280;20748;42.632;23.198;2023-05-09T00:42:34;92257.94;;;10.62;100.00
34506;BME280;20748;42.632;23.198;2023-05-09T00:45:08;92258.78;;;10.71;100.00
34506;BME280;20748;42.632;23.198;2023-05-09T00:47:40;92265.06;;;10.70;100.00
34506;BME280;20748;42.632;23.198;2023-05-09T00:50:13;92254.63;;;10.70;100.00
34506;BME280;20748;42.632;23.198;2023-05-09T00:52:46;92262.94;;;10.72;100.00
34506;BME280;20748;42.632;23.198;2023-05-09T00:55:19;92261.03;;;10.64;100.00
34506;BME280;20748;42.632;23.198;2023-05-09T00:57:51;92259.47;;;10.49;100.00
34506;BME280;20748;42.632;23.198;2023-05-09T01:00:24;92259.28;;;10.59;100.00
34506;BME280;20748;42.632;23.198;2023-05-09T01:02:57;92267.31;;;10.49;100.00
34506;BME280;20748;42.632;23.198;2023-05-09T01:05:35;92262.56;;;10.51;100.00
34506;BME280;20748;42.632;23.198;2023-05-09T01:08:12;92271.41;;;10.36;100.00
34506;BME280;20748;42.632;23.198;2023-05-09T01:11:00;92258.69;;;10.20;100.00
34506;BME280;20748;42.632;23.198;2023-05-09T01:13:40;92261.94;;;10.12;100.00
34506;BME280;20748;42.632;23.198;2023-05-09T01:16:22;92254.81;;;10.18;100.00
34506;BME280;20748;42.632;23.198;2023-05-09T01:19:02;92254.00;;;10.03;100.00
34506;BME280;20748;42.632;23.198;2023-05-09T01:21:39;92252.47;;;10.02;100.00
34506;BME280;20748;42.632;23.198;2023-05-09T01:24:43;92252.69;;;10.20;100.00
34506;BME280;20748;42.632;23.198;2023-05-09T01:27:36;92247.94;;;10.22;100.00
34506;BME280;20748;42.632;23.198;2023-05-09T01:30:11;92250.09;;;10.34;100.00
34506;BME280;20748;42.632;23.198;2023-05-09T01:32:46;92246.31;;;10.26;100.00
34506;BME280;20748;42.632;23.198;2023-05-09T01:35:23;92236.94;;;10.25;100.00
34506;BME280;20748;42.632;23.198;2023-05-09T01:37:57;92241.00;;;10.31;100.00
34506;BME280;20748;42.632;23.198;2023-05-09T01:40:30;92250.47;;;10.27;100.00
34506;BME280;20748;42.632;23.198;2023-05-09T01:43:06;92245.25;;;10.27;100.00
34506;BME280;20748;42.632;23.198;2023-05-09T01:45:42;92242.25;;;10.20;100.00
34506;BME280;20748;42.632;23.198;2023-05-09T01:48:15;92240.13;;;10.22;100.00
34506;BME280;20748;42.632;23.198;2023-05-09T01:50:48;92247.66;;;10.24;100.00
34506;BME280;20748;42.632;23.198;2023-05-09T01:53:22;92242.72;;;10.22;100.00
34506;BME280;20748;42.632;23.198;2023-05-09T01:55:55;92245.84;;;10.24;100.00
34506;BME280;20748;42.632;23.198;2023-05-09T01:58:30;92237.91;;;10.29;100.00
34506;BME280;20748;42.632;23.198;2023-05-09T02:01:04;92238.66;;;10.16;100.00
34506;BME280;20748;42.632;23.198;2023-05-09T02:03:37;92236.56;;;10.18;100.00
34506;BME280;20748;42.632;23.198;2023-05-09T02:06:11;92237.22;;;10.10;100.00
34506;BME280;20748;42.632;23.198;2023-05-09T02:08:44;92246.09;;;10.08;100.00
34506;BME280;20748;42.632;23.198;2023-05-09T02:11:16;92245.22;;;9.85;100.00
34506;BME280;20748;42.632;23.198;2023-05-09T02:13:49;92252.03;;;9.81;100.00
34506;BME280;20748;42.632;23.198;2023-05-09T02:16:22;92243.84;;;9.74;100.00
34506;BME280;20748;42.632;23.198;2023-05-09T02:18:54;92245.84;;;9.77;100.00
34506;BME280;20748;42.632;23.198;2023-05-09T02:21:27;92244.03;;;9.77;100.00
34506;BME280;20748;42.632;23.198;2023-05-09T02:24:00;92244.59;;;9.74;100.00
34506;BME280;20748;42.632;23.198;2023-05-09T02:26:34;92252.22;;;9.71;100.00
34506;BME280;20748;42.632;23.198;2023-05-09T02:29:07;92249.47;;;9.62;100.00
34506;BME280;20748;42.632;23.198;2023-05-09T02:31:43;92249.28;;;9.58;100.00
34506;BME280;20748;42.632;23.198;2023-05-09T02:34:17;92246.69;;;9.58;100.00
34506;BME280;20748;42.632;23.198;2023-05-09T02:36:50;92247.94;;;9.61;100.00
34506;BME280;20748;42.632;23.198;2023-05-09T02:39:23;92246.97;;;9.57;100.00
34506;BME280;20748;42.632;23.198;2023-05-09T02:41:55;92246.13;;;9.61;100.00
34506;BME280;20748;42.632;23.198;2023-05-09T02:44:29;92245.63;;;9.59;100.00
34506;BME280;20748;42.632;23.198;2023-05-09T02:47:03;92249.56;;;9.57;100.00
34506;BME280;20748;42.632;23.198;2023-05-09T02:49:36;92257.38;;;9.57;100.00
34506;BME280;20748;42.632;23.198;2023-05-09T02:52:09;92254.78;;;9.57;100.00
34506;BME280;20748;42.632;23.198;2023-05-09T02:54:42;92248.28;;;9.54;100.00
34506;BME280;20748;42.632;23.198;2023-05-09T02:57:14;92258.63;;;9.59;100.00
34506;BME280;20748;42.632;23.198;2023-05-09T02:59:47;92258.84;;;9.63;100.00
34506;BME280;20748;42.632;23.198;2023-05-09T03:02:20;92258.84;;;9.63;100.00
34506;BME280;20748;42.632;23.198;2023-05-09T03:04:54;92262.50;;;9.62;100.00
34506;BME280;20748;42.632;23.198;2023-05-09T03:07:27;92261.09;;;9.70;100.00
34506;BME280;20748;42.632;23.198;2023-05-09T03:10:00;92260.97;;;9.61;100.00
34506;BME280;20748;42.632;23.198;2023-05-09T03:12:34;92260.09;;;9.65;100.00
34506;BME280;20748;42.632;23.198;2023-05-09T03:15:07;92267.44;;;9.63;100.00
34506;BME280;20748;42.632;23.198;2023-05-09T03:17:45;92272.44;;;9.60;100.00
34506;BME280;20748;42.632;23.198;2023-05-09T03:20:17;92273.00;;;9.57;100.00
34506;BME280;20748;42.632;23.198;2023-05-09T03:22:50;92273.50;;;9.59;100.00
34506;BME280;20748;42.632;23.198;2023-05-09T03:25:22;92271.75;;;9.54;100.00
34506;BME280;20748;42.632;23.198;2023-05-09T03:27:56;92271.59;;;9.45;100.00
34506;BME280;20748;42.632;23.198;2023-05-09T03:30:29;92275.59;;;9.43;100.00
34506;BME280;20748;42.632;23.198;2023-05-09T03:33:03;92274.88;;;9.37;100.00
34506;BME280;20748;42.632;23.198;2023-05-09T03:35:36;92287.69;;;9.33;100.00
34506;BME280;20748;42.632;23.198;2023-05-09T03:38:09;92284.28;;;9.33;100.00
34506;BME280;20748;42.632;23.198;2023-05-09T03:40:42;92284.16;;;9.24;100.00
34506;BME280;20748;42.632;23.198;2023-05-09T03:43:17;92281.00;;;9.27;100.00
34506;BME280;20748;42.632;23.198;2023-05-09T03:45:49;92283.81;;;9.31;100.00
34506;BME280;20748;42.632;23.198;2023-05-09T03:48:23;92288.94;;;9.36;100.00
34506;BME280;20748;42.632;23.198;2023-05-09T03:50:56;92286.69;;;9.29;100.00
34506;BME280;20748;42.632;23.198;2023-05-09T03:53:31;92287.75;;;9.28;100.00
34506;BME280;20748;42.632;23.198;2023-05-09T03:56:04;92291.97;;;9.24;100.00
34506;BME280;20748;42.632;23.198;2023-05-09T03:58:42;92288.09;;;9.21;100.00
34506;BME280;20748;42.632;23.198;2023-05-09T04:01:16;92279.53;;;9.21;100.00
34506;BME280;20748;42.632;23.198;2023-05-09T04:03:50;92292.28;;;9.22;100.00
34506;BME280;20748;42.632;23.198;2023-05-09T04:06:24;92291.41;;;9.27;100.00
34506;BME280;20748;42.632;23.198;2023-05-09T04:08:57;92299.91;;;9.33;100.00
34506;BME280;20748;42.632;23.198;2023-05-09T04:11:29;92299.38;;;9.36;100.00
34506;BME280;20748;42.632;23.198;2023-05-09T04:14:03;92303.94;;;9.44;100.00
34506;BME280;20748;42.632;23.198;2023-05-09T04:16:41;92304.44;;;9.46;100.00
34506;BME280;20748;42.632;23.198;2023-05-09T04:19:14;92301.75;;;9.51;100.00
34506;BME280;20748;42.632;23.198;2023-05-09T04:21:46;92302.59;;;9.47;100.00
34506;BME280;20748;42.632;23.198;2023-05-09T04:24:19;92306.09;;;9.56;100.00
34506;BME280;20748;42.632;23.198;2023-05-09T04:26:53;92296.88;;;9.64;100.00
34506;BME280;20748;42.632;23.198;2023-05-09T04:29:28;92294.75;;;9.66;100.00
34506;BME280;20748;42.632;23.198;2023-05-09T04:32:01;92296.31;;;9.67;100.00
34506;BME280;20748;42.632;23.198;2023-05-09T04:34:34;92291.38;;;9.65;100.00
34506;BME280;20748;42.632;23.198;2023-05-09T04:37:13;92299.50;;;9.64;100.00
34506;BME280;20748;42.632;23.198;2023-05-09T04:39:46;92302.66;;;9.61;100.00
34506;BME280;20748;42.632;23.198;2023-05-09T04:42:24;92297.91;;;9.63;100.00
34506;BME280;20748;42.632;23.198;2023-05-09T04:44:57;92293.91;;;9.71;100.00
34506;BME280;20748;42.632;23.198;2023-05-09T04:47:29;92292.34;;;9.70;100.00
34506;BME280;20748;42.632;23.198;2023-05-09T04:50:03;92293.19;;;9.84;100.00
34506;BME280;20748;42.632;23.198;2023-05-09T04:52:35;92301.41;;;9.91;100.00
34506;BME280;20748;42.632;23.198;2023-05-09T04:55:09;92299.00;;;9.95;100.00
34506;BME280;20748;42.632;23.198;2023-05-09T04:57:45;92300.66;;;10.05;100.00
34506;BME280;20748;42.632;23.198;2023-05-09T05:00:19;92298.03;;;10.05;100.00
34506;BME280;20748;42.632;23.198;2023-05-09T05:02:53;92300.84;;;10.08;100.00
34506;BME280;20748;42.632;23.198;2023-05-09T05:05:28;92293.50;;;9.97;100.00
34506;BME280;20748;42.632;23.198;2023-05-09T05:08:03;92293.81;;;10.09;100.00
34506;BME280;20748;42.632;23.198;2023-05-09T05:10:39;92291.50;;;10.07;100.00
34506;BME280;20748;42.632;23.198;2023-05-09T05:13:15;92293.53;;;10.11;100.00
34506;BME280;20748;42.632;23.198;2023-05-09T05:15:50;92292.78;;;10.24;100.00
34506;BME280;20748;42.632;23.198;2023-05-09T05:18:25;92290.34;;;10.28;100.00
34506;BME280;20748;42.632;23.198;2023-05-09T05:20:59;92290.00;;;10.34;100.00
34506;BME280;20748;42.632;23.198;2023-05-09T05:23:31;92295.78;;;10.31;100.00
34506;BME280;20748;42.632;23.198;2023-05-09T05:26:04;92298.28;;;10.37;100.00
34506;BME280;20748;42.632;23.198;2023-05-09T05:28:39;92308.06;;;10.45;100.00
34506;BME280;20748;42.632;23.198;2023-05-09T05:31:11;92304.91;;;10.48;100.00
34506;BME280;20748;42.632;23.198;2023-05-09T05:33:44;92298.72;;;10.58;100.00
34506;BME280;20748;42.632;23.198;2023-05-09T05:36:17;92304.03;;;10.53;100.00
34506;BME280;20748;42.632;23.198;2023-05-09T05:38:49;92301.03;;;10.59;100.00
34506;BME280;20748;42.632;23.198;2023-05-09T05:41:22;92294.56;;;10.71;100.00
34506;BME280;20748;42.632;23.198;2023-05-09T05:43:55;92303.84;;;10.77;100.00
34506;BME280;20748;42.632;23.198;2023-05-09T05:46:27;92305.56;;;10.82;100.00
34506;BME280;20748;42.632;23.198;2023-05-09T05:49:01;92305.66;;;10.91;100.00
34506;BME280;20748;42.632;23.198;2023-05-09T05:51:34;92310.00;;;10.95;100.00
34506;BME280;20748;42.632;23.198;2023-05-09T05:54:08;92301.94;;;11.20;100.00
34506;BME280;20748;42.632;23.198;2023-05-09T05:56:41;92310.84;;;11.19;100.00
34506;BME280;20748;42.632;23.198;2023-05-09T05:59:14;92310.06;;;11.18;100.00
34506;BME280;20748;42.632;23.198;2023-05-09T06:01:47;92301.91;;;11.34;100.00
34506;BME280;20748;42.632;23.198;2023-05-09T06:04:19;92306.06;;;11.35;100.00
34506;BME280;20748;42.632;23.198;2023-05-09T06:06:53;92306.09;;;11.21;100.00
34506;BME280;20748;42.632;23.198;2023-05-09T06:09:25;92312.16;;;11.30;100.00
34506;BME280;20748;42.632;23.198;2023-05-09T06:11:57;92303.81;;;11.42;100.00
34506;BME280;20748;42.632;23.198;2023-05-09T06:14:30;92304.91;;;11.64;100.00
34506;BME280;20748;42.632;23.198;2023-05-09T06:17:02;92307.91;;;11.57;100.00
34506;BME280;20748;42.632;23.198;2023-05-09T06:19:35;92311.78;;;11.60;100.00
34506;BME280;20748;42.632;23.198;2023-05-09T06:22:08;92317.28;;;11.58;100.00
34506;BME280;20748;42.632;23.198;2023-05-09T06:24:41;92308.22;;;11.55;100.00
34506;BME280;20748;42.632;23.198;2023-05-09T06:27:13;92305.00;;;11.59;100.00
34506;BME280;20748;42.632;23.198;2023-05-09T06:29:45;92310.78;;;11.69;100.00
34506;BME280;20748;42.632;23.198;2023-05-09T06:32:18;92316.06;;;11.78;100.00
34506;BME280;20748;42.632;23.198;2023-05-09T06:34:50;92307.94;;;11.80;100.00
34506;BME280;20748;42.632;23.198;2023-05-09T06:37:24;92311.25;;;11.94;100.00
34506;BME280;20748;42.632;23.198;2023-05-09T06:39:57;92311.69;;;12.11;100.00
34506;BME280;20748;42.632;23.198;2023-05-09T06:42:29;92311.75;;;12.19;100.00
34506;BME280;20748;42.632;23.198;2023-05-09T06:45:04;92305.72;;;12.51;100.00
34506;BME280;20748;42.632;23.198;2023-05-09T06:47:36;92312.16;;;12.44;100.00
34506;BME280;20748;42.632;23.198;2023-05-09T06:50:09;92306.84;;;12.67;100.00
34506;BME280;20748;42.632;23.198;2023-05-09T06:52:42;92309.50;;;12.76;100.00
34506;BME280;20748;42.632;23.198;2023-05-09T06:55:15;92306.94;;;12.94;100.00
34506;BME280;20748;42.632;23.198;2023-05-09T06:57:47;92301.53;;;12.90;100.00
34506;BME280;20748;42.632;23.198;2023-05-09T07:00:21;92308.56;;;12.72;100.00
34506;BME280;20748;42.632;23.198;2023-05-09T07:02:53;92303.19;;;12.77;100.00
34506;BME280;20748;42.632;23.198;2023-05-09T07:05:25;92308.69;;;12.67;100.00
34506;BME280;20748;42.632;23.198;2023-05-09T07:07:59;92308.00;;;12.43;100.00
34506;BME280;20748;42.632;23.198;2023-05-09T07:10:31;92292.13;;;12.40;100.00
34506;BME280;20748;42.632;23.198;2023-05-09T07:13:04;92297.31;;;12.62;100.00
34506;BME280;20748;42.632;23.198;2023-05-09T07:15:36;92308.06;;;12.61;100.00
34506;BME280;20748;42.632;23.198;2023-05-09T07:18:14;92309.94;;;12.69;100.00
34506;BME280;20748;42.632;23.198;2023-05-09T07:20:46;92313.63;;;12.68;100.00
34506;BME280;20748;42.632;23.198;2023-05-09T07:23:19;92316.94;;;12.83;100.00
34506;BME280;20748;42.632;23.198;2023-05-09T07:25:55;92318.91;;;12.77;100.00
34506;BME280;20748;42.632;23.198;2023-05-09T07:28:28;92313.38;;;12.79;100.00
34506;BME280;20748;42.632;23.198;2023-05-09T07:31:00;92308.81;;;12.61;100.00
34506;BME280;20748;42.632;23.198;2023-05-09T07:33:33;92315.19;;;12.78;100.00
34506;BME280;20748;42.632;23.198;2023-05-09T07:36:06;92307.31;;;12.69;100.00
34506;BME280;20748;42.632;23.198;2023-05-09T07:38:39;92314.84;;;12.62;100.00
34506;BME280;20748;42.632;23.198;2023-05-09T07:41:11;92314.50;;;12.55;100.00
34506;BME280;20748;42.632;23.198;2023-05-09T07:43:44;92304.63;;;12.52;100.00
34506;BME280;20748;42.632;23.198;2023-05-09T07:46:16;92307.38;;;12.46;100.00
34506;BME280;20748;42.632;23.198;2023-05-09T07:48:48;92313.09;;;12.48;100.00
34506;BME280;20748;42.632;23.198;2023-05-09T07:51:21;92305.00;;;12.59;100.00
34506;BME280;20748;42.632;23.198;2023-05-09T07:53:54;92299.72;;;12.50;100.00
34506;BME280;20748;42.632;23.198;2023-05-09T07:56:27;92303.56;;;12.53;100.00
34506;BME280;20748;42.632;23.198;2023-05-09T07:58:59;92295.16;;;12.65;100.00
34506;BME280;20748;42.632;23.198;2023-05-09T08:01:32;92289.59;;;12.57;100.00
34506;BME280;20748;42.632;23.198;2023-05-09T08:04:04;92286.38;;;12.69;100.00
34506;BME280;20748;42.632;23.198;2023-05-09T08:06:39;92293.94;;;12.71;100.00
34506;BME280;20748;42.632;23.198;2023-05-09T08:09:12;92289.66;;;12.75;100.00
34506;BME280;20748;42.632;23.198;2023-05-09T08:11:45;92290.41;;;12.75;100.00
34506;BME280;20748;42.632;23.198;2023-05-09T08:14:17;92296.13;;;12.78;100.00
34506;BME280;20748;42.632;23.198;2023-05-09T08:16:49;92284.09;;;12.77;100.00
34506;BME280;20748;42.632;23.198;2023-05-09T08:19:22;92282.50;;;12.58;100.00
34506;BME280;20748;42.632;23.198;2023-05-09T08:21:56;92287.50;;;12.86;100.00
34506;BME280;20748;42.632;23.198;2023-05-09T08:24:29;92280.75;;;13.02;100.00
34506;BME280;20748;42.632;23.198;2023-05-09T08:27:02;92291.13;;;13.16;100.00
34506;BME280;20748;42.632;23.198;2023-05-09T08:29:35;92288.34;;;13.22;99.23
34506;BME280;20748;42.632;23.198;2023-05-09T08:32:07;92288.53;;;13.52;99.66
34506;BME280;20748;42.632;23.198;2023-05-09T08:34:39;92284.81;;;13.79;99.99
34506;BME280;20748;42.632;23.198;2023-05-09T08:37:12;92277.25;;;13.87;99.21
34506;BME280;20748;42.632;23.198;2023-05-09T08:39:47;92286.16;;;14.12;97.90
34506;BME280;20748;42.632;23.198;2023-05-09T08:42:21;92286.78;;;13.91;94.97
34506;BME280;20748;42.632;23.198;2023-05-09T08:44:57;92282.66;;;13.81;96.78
34506;BME280;20748;42.632;23.198;2023-05-09T08:47:33;92281.09;;;13.98;96.07
34506;BME280;20748;42.632;23.198;2023-05-09T08:50:07;92280.16;;;13.94;94.57
34506;BME280;20748;42.632;23.198;2023-05-09T08:52:40;92281.75;;;13.86;95.63
34506;BME280;20748;42.632;23.198;2023-05-09T08:55:13;92283.88;;;13.93;96.33
34506;BME280;20748;42.632;23.198;2023-05-09T08:57:45;92282.78;;;13.94;94.71
34506;BME280;20748;42.632;23.198;2023-05-09T09:00:18;92290.66;;;13.85;92.87
34506;BME280;20748;42.632;23.198;2023-05-09T09:02:52;92277.72;;;13.89;94.13
34506;BME280;20748;42.632;23.198;2023-05-09T09:05:25;92281.72;;;13.95;95.40
34506;BME280;20748;42.632;23.198;2023-05-09T09:08:13;92291.13;;;13.96;91.01
34506;BME280;20748;42.632;23.198;2023-05-09T09:10:46;92293.38;;;14.24;93.74
34506;BME280;20748;42.632;23.198;2023-05-09T09:13:19;92283.88;;;14.49;93.29
34506;BME280;20748;42.632;23.198;2023-05-09T09:15:52;92282.44;;;14.61;92.52
34506;BME280;20748;42.632;23.198;2023-05-09T09:18:28;92269.28;;;14.70;91.75
34506;BME280;20748;42.632;23.198;2023-05-09T09:21:05;92269.53;;;14.86;90.76
34506;BME280;20748;42.632;23.198;2023-05-09T09:23:38;92274.38;;;14.75;90.05
34506;BME280;20748;42.632;23.198;2023-05-09T09:26:14;92284.38;;;14.43;88.78
34506;BME280;20748;42.632;23.198;2023-05-09T09:28:47;92280.69;;;14.35;87.59
34506;BME280;20748;42.632;23.198;2023-05-09T09:31:20;92280.41;;;14.28;90.97
34506;BME280;20748;42.632;23.198;2023-05-09T09:33:58;92278.31;;;14.03;92.50
34506;BME280;20748;42.632;23.198;2023-05-09T09:36:31;92286.19;;;13.94;95.52
34506;BME280;20748;42.632;23.198;2023-05-09T09:39:04;92297.63;;;13.90;93.23
34506;BME280;20748;42.632;23.198;2023-05-09T09:41:38;92290.34;;;13.95;93.13
34506;BME280;20748;42.632;23.198;2023-05-09T09:44:12;92297.91;;;14.06;95.57
34506;BME280;20748;42.632;23.198;2023-05-09T09:46:48;92280.69;;;14.35;92.79
34506;BME280;20748;42.632;23.198;2023-05-09T09:49:22;92289.38;;;14.74;90.61
34506;BME280;20748;42.632;23.198;2023-05-09T09:51:56;92293.59;;;14.97;83.41
34506;BME280;20748;42.632;23.198;2023-05-09T09:54:30;92306.03;;;15.30;91.12
34506;BME280;20748;42.632;23.198;2023-05-09T09:57:03;92303.16;;;15.65;84.96
34506;BME280;20748;42.632;23.198;2023-05-09T09:59:36;92303.63;;;15.67;82.95
34506;BME280;20748;42.632;23.198;2023-05-09T10:02:08;92297.22;;;15.56;79.28
34506;BME280;20748;42.632;23.198;2023-05-09T10:04:42;92290.56;;;15.59;78.09
34506;BME280;20748;42.632;23.198;2023-05-09T10:07:15;92295.16;;;15.62;83.23
34506;BME280;20748;42.632;23.198;2023-05-09T10:09:51;92306.06;;;15.51;82.15
34506;BME280;20748;42.632;23.198;2023-05-09T10:12:24;92292.97;;;15.85;79.52
34506;BME280;20748;42.632;23.198;2023-05-09T10:14:56;92285.88;;;15.98;77.14
34506;BME280;20748;42.632;23.198;2023-05-09T10:17:29;92293.03;;;15.76;76.87
34506;BME280;20748;42.632;23.198;2023-05-09T10:20:05;92288.88;;;15.96;81.53
34506;BME280;20748;42.632;23.198;2023-05-09T10:22:38;92289.16;;;16.29;80.80
34506;BME280;20748;42.632;23.198;2023-05-09T10:25:16;92292.59;;;16.54;79.76
34506;BME280;20748;42.632;23.198;2023-05-09T10:27:53;92284.81;;;16.83;75.47
34506;BME280;20748;42.632;23.198;2023-05-09T10:30:30;92282.84;;;16.80;74.85
34506;BME280;20748;42.632;23.198;2023-05-09T10:33:09;92279.75;;;16.77;75.39
34506;BME280;20748;42.632;23.198;2023-05-09T10:35:45;92274.38;;;16.61;73.78
34506;BME280;20748;42.632;23.198;2023-05-09T10:38:18;92273.53;;;16.70;72.83
34506;BME280;20748;42.632;23.198;2023-05-09T10:40:52;92280.06;;;16.38;69.81
34506;BME280;20748;42.632;23.198;2023-05-09T10:43:26;92287.66;;;16.53;67.73
34506;BME280;20748;42.632;23.198;2023-05-09T10:46:00;92275.38;;;16.69;69.11
34506;BME280;20748;42.632;23.198;2023-05-09T10:48:32;92271.31;;;16.59;68.51
34506;BME280;20748;42.632;23.198;2023-05-09T10:51:06;92277.44;;;16.51;67.78
34506;BME280;20748;42.632;23.198;2023-05-09T10:53:40;92262.03;;;16.16;69.19
34506;BME280;20748;42.632;23.198;2023-05-09T10:56:24;92261.16;;;16.12;74.64
34506;BME280;20748;42.632;23.198;2023-05-09T10:58:58;92262.75;;;16.50;64.76
34506;BME280;20748;42.632;23.198;2023-05-09T11:01:32;92252.88;;;16.72;62.04
34506;BME280;20748;42.632;23.198;2023-05-09T11:04:08;92240.47;;;16.60;62.18
34506;BME280;20748;42.632;23.198;2023-05-09T11:06:44;92246.19;;;16.87;64.34
34506;BME280;20748;42.632;23.198;2023-05-09T11:09:22;92256.28;;;16.85;58.72
34506;BME280;20748;42.632;23.198;2023-05-09T11:11:57;92255.59;;;17.00;60.41
34506;BME280;20748;42.632;23.198;2023-05-09T11:14:31;92249.72;;;16.78;63.64
34506;BME280;20748;42.632;23.198;2023-05-09T11:17:05;92241.69;;;17.12;65.27
34506;BME280;20748;42.632;23.198;2023-05-09T11:19:56;92242.44;;;17.13;63.05
34506;BME280;20748;42.632;23.198;2023-05-09T11:22:29;92242.34;;;16.84;63.98
34506;BME280;20748;42.632;23.198;2023-05-09T11:25:04;92244.88;;;16.56;61.74
34506;BME280;20748;42.632;23.198;2023-05-09T11:27:40;92224.13;;;16.29;64.94
34506;BME280;20748;42.632;23.198;2023-05-09T11:30:15;92233.00;;;15.91;65.41
34506;BME280;20748;42.632;23.198;2023-05-09T11:32:50;92231.25;;;15.82;66.34
34506;BME280;20748;42.632;23.198;2023-05-09T11:35:23;92230.34;;;15.78;65.48
34506;BME280;20748;42.632;23.198;2023-05-09T11:37:59;92230.38;;;15.57;65.42
34506;BME280;20748;42.632;23.198;2023-05-09T11:40:33;92228.81;;;15.43;67.11
34506;BME280;20748;42.632;23.198;2023-05-09T11:43:06;92230.66;;;15.43;68.17
34506;BME280;20748;42.632;23.198;2023-05-09T11:45:40;92230.22;;;15.20;71.49
34506;BME280;20748;42.632;23.198;2023-05-09T11:48:12;92243.47;;;15.02;73.97
34506;BME280;20748;42.632;23.198;2023-05-09T11:50:46;92239.28;;;14.80;74.88
34506;BME280;20748;42.632;23.198;2023-05-09T11:53:18;92238.16;;;14.50;76.06
34506;BME280;20748;42.632;23.198;2023-05-09T11:55:50;92228.03;;;14.40;75.24
34506;BME280;20748;42.632;23.198;2023-05-09T11:58:23;92235.19;;;14.22;74.15
34506;BME280;20748;42.632;23.198;2023-05-09T12:00:56;92241.34;;;14.26;76.25
34506;BME280;20748;42.632;23.198;2023-05-09T12:03:29;92241.25;;;14.14;76.37
34506;BME280;20748;42.632;23.198;2023-05-09T12:06:01;92230.59;;;14.19;76.82
34506;BME280;20748;42.632;23.198;2023-05-09T12:08:34;92235.81;;;14.28;76.32
34506;BME280;20748;42.632;23.198;2023-05-09T12:11:08;92244.16;;;14.21;75.03
34506;BME280;20748;42.632;23.198;2023-05-09T12:13:44;92245.41;;;14.15;73.87
34506;BME280;20748;42.632;23.198;2023-05-09T12:16:19;92236.09;;;14.26;75.75
34506;BME280;20748;42.632;23.198;2023-05-09T12:18:52;92234.91;;;14.15;77.46
34506;BME280;20748;42.632;23.198;2023-05-09T12:21:24;92234.78;;;14.02;78.45
34506;BME280;20748;42.632;23.198;2023-05-09T12:23:57;92229.75;;;13.79;80.53
34506;BME280;20748;42.632;23.198;2023-05-09T12:26:30;92232.09;;;13.46;82.38
34506;BME280;20748;42.632;23.198;2023-05-09T12:29:03;92229.16;;;13.38;83.83
34506;BME280;20748;42.632;23.198;2023-05-09T12:31:36;92235.47;;;13.37;83.00
34506;BME280;20748;42.632;23.198;2023-05-09T12:34:08;92229.78;;;13.26;84.91
34506;BME280;20748;42.632;23.198;2023-05-09T12:36:43;92226.72;;;13.33;82.20
34506;BME280;20748;42.632;23.198;2023-05-09T12:39:21;92218.06;;;13.68;84.41
34506;BME280;20748;42.632;23.198;2023-05-09T12:41:53;92220.66;;;13.77;82.44
34506;BME280;20748;42.632;23.198;2023-05-09T12:44:33;92212.81;;;13.68;85.13
34506;BME280;20748;42.632;23.198;2023-05-09T12:47:06;92213.06;;;13.84;82.85
34506;BME280;20748;42.632;23.198;2023-05-09T12:49:39;92206.47;;;13.69;79.47
34506;BME280;20748;42.632;23.198;2023-05-09T12:52:16;92202.59;;;13.75;82.94
34506;BME280;20748;42.632;23.198;2023-05-09T12:54:51;92195.84;;;13.74;84.11
34506;BME280;20748;42.632;23.198;2023-05-09T12:57:24;92190.84;;;13.90;84.93
34506;BME280;20748;42.632;23.198;2023-05-09T12:59:59;92190.34;;;14.06;83.73
34506;BME280;20748;42.632;23.198;2023-05-09T13:02:34;92173.56;;;13.89;79.86
34506;BME280;20748;42.632;23.198;2023-05-09T13:05:09;92187.59;;;13.93;81.27
34506;BME280;20748;42.632;23.198;2023-05-09T13:07:43;92180.88;;;13.75;81.94
34506;BME280;20748;42.632;23.198;2023-05-09T13:10:17;92171.34;;;13.61;83.50
34506;BME280;20748;42.632;23.198;2023-05-09T13:12:52;92178.25;;;13.75;83.39
34506;BME280;20748;42.632;23.198;2023-05-09T13:15:24;92176.19;;;13.89;80.70
34506;BME280;20748;42.632;23.198;2023-05-09T13:17:58;92175.97;;;14.12;79.08
34506;BME280;20748;42.632;23.198;2023-05-09T13:20:30;92167.31;;;14.12;74.57